This is the latest recevied weather packets stored in our database for station/object F5IOR-13. If no packets are shown the sender has not sent any weather packets the latest 1 day(s).
| Time | Temp. | Humidity | Pressure | Rain* | Wind** | Luminosity | Snow |
|---|---|---|---|---|---|---|---|
| 1778094497 | 11.67° C | 89% | 982.9 hPa | 2.29 mm | - | - | - |
| 1778092697 | 12.22° C | 88% | 982.4 hPa | 2.29 mm | - | - | - |
| 1778090897 | 12.22° C | 85% | 982 hPa | 2.29 mm | - | - | - |
| 1778089097 | 12.78° C | 82% | 981.7 hPa | 2.29 mm | - | - | - |
| 1778087297 | 12.78° C | 81% | 981.9 hPa | 2.29 mm | - | - | - |
| 1778085497 | 12.78° C | 85% | 981.7 hPa | 1.27 mm | - | - | - |
| 1778083697 | 12.78° C | 86% | 981.7 hPa | 1.27 mm | - | - | - |
| 1778081897 | 12.22° C | 84% | 981.8 hPa | 1.27 mm | - | - | - |
| 1778080097 | 12.78° C | 77% | 981.7 hPa | 1.27 mm | - | - | - |
| 1778078297 | 15° C | 65% | 981.3 hPa | 1.27 mm | - | - | - |
| 1778074697 | 14.44° C | 64% | 981.2 hPa | 3.3 mm | - | - | - |
| 1778072897 | 15° C | 66% | 981.3 hPa | 3.3 mm | - | - | - |
| 1778071097 | 15° C | 68% | 981.3 hPa | 3.3 mm | - | - | - |
| 1778069297 | 14.44° C | 71% | 981.5 hPa | 3.3 mm | - | - | - |
| 1778065697 | 13.33° C | 73% | 981.8 hPa | 2.29 mm | - | - | - |
| 1778063897 | 12.78° C | 75% | 981.9 hPa | 2.29 mm | - | - | - |
| 1778062097 | 12.78° C | 80% | 981.8 hPa | 2.29 mm | - | - | - |
| 1778060297 | 12.22° C | 80% | 981.8 hPa | 2.29 mm | - | - | - |
| 1778059337 | 11.67° C | 82% | 981.8 hPa | 2.29 mm | - | - | - |
| 1778058377 | 11.67° C | 83% | 981.7 hPa | 2.29 mm | - | - | - |
| 1778057417 | 11.67° C | 84% | 981.4 hPa | 2.29 mm | - | - | - |
| 1778055977 | 11.67° C | 86% | 981 hPa | 2.29 mm | - | - | - |
| 1778055497 | 11.67° C | 86% | 981 hPa | 9.14 mm | - | - | - |
| 1778054537 | 11.11° C | 91% | 981.3 hPa | 9.14 mm | - | - | - |
| 1778054297 | 10.56° C | 92% | 981.3 hPa | 9.14 mm | - | - | - |
* Rain latest hour (hover to see other rain measurements)
** Current wind speed in m/s (hover to see current wind gust speed)